Time;durP1;ratioP1;P1;durP2;ratioP2;P2;SDS_P1;SDS_P2;PMS_P1;PMS_P2;Temp;Humidity;BMP_temperature;BMP_pressure;BME280_temperature;BME280_humidity;BME280_pressure;Samples;Min_cycle;Max_cycle;Signal;HPM_P1;HPM_P2
2022/11/16 00:01:31;;;;;;;10.45;6.10;;;11.80;99.90;;;;;;5052256;28;20124;-76
2022/11/16 00:03:58;;;;;;;7.93;5.45;;;11.70;99.90;;;;;;5051531;28;20032;-75
2022/11/16 00:06:25;;;;;;;12.23;5.90;;;11.70;99.90;;;;;;5052053;28;20485;-75
2022/11/16 00:11:44;;;;;;;8.93;5.78;;;11.80;99.90;;;;;;5052854;28;20076;-76
2022/11/16 00:14:10;;;;;;;9.00;5.38;;;11.80;99.90;;;;;;5052574;28;20462;-76
2022/11/16 00:16:35;;;;;;;11.82;6.13;;;11.80;99.90;;;;;;5052025;28;20378;-77
2022/11/16 00:19:03;;;;;;;9.57;5.63;;;11.80;99.90;;;;;;5052876;28;20041;-75
2022/11/16 00:21:29;;;;;;;10.82;6.13;;;11.80;99.90;;;;;;5051613;28;20041;-75
2022/11/16 00:23:55;;;;;;;9.65;5.63;;;11.80;99.90;;;;;;5052489;28;20118;-75
2022/11/16 00:26:21;;;;;;;9.35;5.80;;;11.80;99.90;;;;;;5051602;28;20033;-74
2022/11/16 00:28:47;;;;;;;10.82;6.22;;;11.70;99.90;;;;;;5051805;28;20025;-74
2022/11/16 00:31:13;;;;;;;11.60;5.97;;;11.70;99.90;;;;;;5052190;28;20036;-75
2022/11/16 00:33:39;;;;;;;8.93;6.00;;;11.70;99.90;;;;;;5057998;28;20032;-75
2022/11/16 00:36:08;;;;;;;8.90;5.80;;;11.70;99.90;;;;;;5069396;28;20444;-75
2022/11/16 00:38:34;;;;;;;9.25;6.05;;;11.70;99.90;;;;;;5074092;28;20047;-75
2022/11/16 00:41:00;;;;;;;11.02;6.00;;;11.70;99.90;;;;;;5073492;28;20024;-74
2022/11/16 00:43:26;;;;;;;10.45;6.25;;;11.60;99.90;;;;;;5073308;28;20532;-75
2022/11/16 00:45:52;;;;;;;9.27;5.72;;;11.70;99.90;;;;;;5072530;28;20111;-75
2022/11/16 00:48:18;;;;;;;9.77;6.63;;;11.70;99.90;;;;;;5072159;28;20489;-76
2022/11/16 00:50:44;;;;;;;11.73;5.68;;;11.60;99.90;;;;;;5071340;28;20052;-75
2022/11/16 00:53:13;;;;;;;11.88;6.55;;;11.60;99.90;;;;;;5072017;28;20024;-75
2022/11/16 00:55:39;;;;;;;10.85;6.60;;;11.60;99.90;;;;;;5071489;28;20098;-77
2022/11/16 00:58:05;;;;;;;10.10;5.97;;;11.70;99.90;;;;;;5072980;28;20051;-75
2022/11/16 01:00:30;;;;;;;11.77;6.13;;;11.60;99.90;;;;;;5073170;28;20529;-74
2022/11/16 01:02:56;;;;;;;10.18;6.28;;;11.60;99.90;;;;;;5072372;28;20060;-75
2022/11/16 01:05:23;;;;;;;12.10;6.18;;;11.60;99.90;;;;;;5054298;28;20049;-75
2022/11/16 01:07:49;;;;;;;10.13;6.40;;;11.60;99.90;;;;;;5051216;28;20044;-75
2022/11/16 01:10:17;;;;;;;11.20;6.72;;;11.60;99.90;;;;;;5051430;28;20448;-75
2022/11/16 01:12:44;;;;;;;11.48;6.40;;;11.60;99.90;;;;;;5051122;28;20116;-75
2022/11/16 01:15:10;;;;;;;12.30;7.00;;;11.60;99.90;;;;;;5051723;28;20029;-74
2022/11/16 01:17:37;;;;;;;11.80;6.60;;;11.60;99.90;;;;;;5051609;28;20041;-74
2022/11/16 01:20:06;;;;;;;11.65;6.53;;;11.60;99.90;;;;;;5051129;28;20025;-75
2022/11/16 01:22:34;;;;;;;10.27;6.53;;;11.60;99.90;;;;;;5051287;28;20120;-75
2022/11/16 01:25:00;;;;;;;14.90;6.80;;;11.60;99.90;;;;;;5050848;28;20028;-74
2022/11/16 01:27:26;;;;;;;11.10;6.82;;;11.60;99.90;;;;;;5051216;28;20041;-75
2022/11/16 01:29:52;;;;;;;10.38;6.10;;;11.60;99.90;;;;;;5050532;28;20462;-75
2022/11/16 01:32:17;;;;;;;10.65;6.10;;;11.60;99.90;;;;;;5051272;28;20061;-74
2022/11/16 01:34:43;;;;;;;9.25;6.05;;;11.60;99.90;;;;;;5050464;28;20462;-74
2022/11/16 01:37:09;;;;;;;11.80;6.22;;;11.60;99.90;;;;;;5051968;28;20025;-75
2022/11/16 01:39:34;;;;;;;11.82;6.82;;;11.60;99.90;;;;;;5051044;28;20367;-74
2022/11/16 01:42:00;;;;;;;10.25;6.22;;;11.50;99.90;;;;;;5050401;28;20021;-75
2022/11/16 01:44:32;;;;;;;10.77;6.03;;;11.50;99.90;;;;;;5051218;28;20382;-74
2022/11/16 01:47:04;;;;;;;10.63;6.55;;;11.50;99.90;;;;;;5051936;28;20055;-75
2022/11/16 01:49:33;;;;;;;10.02;5.80;;;11.50;99.90;;;;;;5052343;28;20029;-74
2022/11/16 01:52:04;;;;;;;11.93;6.45;;;11.50;99.90;;;;;;5051640;28;20039;-75
2022/11/16 01:54:33;;;;;;;12.05;6.90;;;11.50;99.90;;;;;;5052190;28;20028;-75
2022/11/16 01:57:05;;;;;;;11.82;7.05;;;11.40;99.90;;;;;;5051481;28;20486;-75
2022/11/16 01:59:32;;;;;;;12.07;6.50;;;11.50;99.90;;;;;;5052465;28;20132;-75
2022/11/16 02:01:59;;;;;;;12.48;7.00;;;11.50;99.90;;;;;;5051946;28;20029;-74
2022/11/16 02:04:25;;;;;;;11.93;7.05;;;11.40;99.90;;;;;;5052364;28;20080;-74
2022/11/16 02:07:06;;;;;;;14.43;6.45;;;11.40;99.90;;;;;;5052010;28;20032;-75
2022/11/16 02:09:58;;;;;;;14.40;7.13;;;11.40;99.90;;;;;;5050920;28;20120;-75
2022/11/16 02:12:49;;;;;;;;;;;11.40;99.90;;;;;;5052836;28;20064;-75
2022/11/16 02:15:21;;;;;;;11.70;7.07;;;11.50;99.90;;;;;;5051497;28;20247;-75
2022/11/16 02:18:14;;;;;;;11.25;7.47;;;11.40;99.90;;;;;;5050529;28;20159;-76
2022/11/16 02:20:59;;;;;;;11.63;7.05;;;11.40;99.90;;;;;;5052371;28;20028;-75
2022/11/16 02:23:59;;;;;;;14.18;7.75;;;11.50;99.90;;;;;;5051180;28;20120;-75
2022/11/16 02:26:43;;;;;;;15.02;8.43;;;11.40;99.90;;;;;;5050860;28;20053;-75
2022/11/16 02:29:37;;;;;;;17.10;9.15;;;11.40;99.90;;;;;;5050664;28;20025;-75
2022/11/16 02:32:03;;;;;;;16.33;8.40;;;11.40;99.90;;;;;;5051731;28;20033;-76
2022/11/16 02:34:51;;;;;;;14.52;8.68;;;11.40;99.90;;;;;;5055710;28;20079;-75
2022/11/16 02:37:21;;;;;;;14.05;8.35;;;11.40;99.90;;;;;;5053883;28;20029;-75
2022/11/16 02:39:51;;;;;;;15.57;8.68;;;11.30;99.90;;;;;;5055403;28;20033;-77
2022/11/16 02:42:22;;;;;;;14.02;8.10;;;11.30;99.90;;;;;;5054782;28;20028;-76
2022/11/16 02:44:51;;;;;;;12.07;7.10;;;11.30;99.90;;;;;;5054185;28;20060;-76
2022/11/16 02:47:23;;;;;;;11.68;7.20;;;11.30;99.90;;;;;;5054296;28;20083;-76
2022/11/16 02:49:55;;;;;;;11.20;6.88;;;11.30;99.90;;;;;;5054159;28;20029;-76
2022/11/16 02:52:23;;;;;;;11.68;6.80;;;11.30;99.90;;;;;;5055881;28;20017;-76
2022/11/16 02:54:48;;;;;;;9.88;6.70;;;11.30;99.90;;;;;;5053791;28;20029;-76
2022/11/16 02:57:52;;;;;;;10.40;6.55;;;11.20;99.90;;;;;;5054280;28;20067;-75
2022/11/16 03:00:21;;;;;;;11.52;6.50;;;11.30;99.90;;;;;;5054049;28;20025;-76
2022/11/16 03:03:27;;;;;;;11.98;7.15;;;11.30;99.90;;;;;;5055193;28;20374;-77
2022/11/16 03:06:15;;;;;;;14.77;7.25;;;11.20;99.90;;;;;;5053327;28;20497;-76
2022/11/16 03:08:50;;;;;;;13.70;7.70;;;11.20;99.90;;;;;;5055235;28;20025;-76
2022/11/16 03:14:06;;;;;;;11.50;6.97;;;11.20;99.90;;;;;;5055033;28;20036;-76
2022/11/16 03:16:41;;;;;;;11.55;6.60;;;11.20;99.90;;;;;;5055274;28;20033;-76
2022/11/16 03:19:11;;;;;;;11.60;7.25;;;11.20;99.90;;;;;;5053300;28;20029;-76
2022/11/16 03:22:02;;;;;;;11.55;7.18;;;11.10;99.90;;;;;;5054966;28;20029;-76
2022/11/16 03:24:28;;;;;;;9.13;5.80;;;11.10;99.90;;;;;;5034595;28;20171;-75
2022/11/16 03:27:24;;;;;;;12.38;6.57;;;11.10;99.90;;;;;;5053224;28;20493;-76
2022/11/16 03:30:14;;;;;;;11.70;6.57;;;11.10;99.90;;;;;;5053171;28;20025;-76
2022/11/16 03:33:07;;;;;;;11.50;6.45;;;11.10;99.90;;;;;;5053403;28;20033;-74
2022/11/16 03:35:57;;;;;;;13.05;6.32;;;11.10;99.90;;;;;;5054386;28;20493;-74
2022/11/16 03:38:26;;;;;;;10.75;6.47;;;11.10;99.90;;;;;;5054709;28;20032;-75
2022/11/16 03:40:56;;;;;;;10.40;6.28;;;11.10;99.90;;;;;;5052377;28;20024;-75
2022/11/16 03:43:24;;;;;;;11.13;6.15;;;11.10;99.90;;;;;;5052623;28;20029;-74
2022/11/16 03:45:50;;;;;;;10.38;5.85;;;11.10;99.90;;;;;;5052717;28;20489;-77
2022/11/16 03:48:15;;;;;;;10.85;6.15;;;11.10;99.90;;;;;;5054801;28;20033;-75
2022/11/16 03:50:42;;;;;;;10.88;5.32;;;11.10;99.90;;;;;;5052991;28;20082;-74
2022/11/16 03:53:08;;;;;;;10.07;5.68;;;11.10;99.90;;;;;;5052107;28;20025;-74
2022/11/16 03:55:33;;;;;;;11.90;5.65;;;11.10;99.90;;;;;;5053948;28;20033;-74
2022/11/16 03:57:59;;;;;;;10.32;5.78;;;11.20;99.90;;;;;;5053595;28;20082;-75
2022/11/16 04:00:24;;;;;;;9.65;5.35;;;11.20;99.90;;;;;;5054297;28;20021;-75
2022/11/16 04:02:50;;;;;;;8.68;5.55;;;11.20;99.90;;;;;;5052286;28;20030;-77
2022/11/16 04:24:38;;;;;;;5.63;3.92;;;11.20;99.90;;;;;;5053740;28;20036;-74
2022/11/16 04:30:03;;;;;;;6.47;3.58;;;11.20;99.90;;;;;;5044156;28;20041;-74
2022/11/16 04:37:58;;;;;;;8.13;3.80;;;11.20;99.90;;;;;;5052837;28;20032;-74
2022/11/16 04:40:28;;;;;;;6.75;4.40;;;11.20;99.90;;;;;;5052588;28;20036;-74
2022/11/16 04:42:59;;;;;;;6.20;4.25;;;11.20;99.90;;;;;;5052907;28;20025;-77
2022/11/16 04:48:12;;;;;;;6.35;3.60;;;11.20;99.90;;;;;;5052865;28;20293;-74
2022/11/16 04:50:38;;;;;;;6.65;4.18;;;11.20;99.90;;;;;;5052007;28;20029;-74
2022/11/16 04:53:04;;;;;;;8.63;4.25;;;11.30;99.90;;;;;;5051392;28;20028;-74
2022/11/16 04:55:30;;;;;;;6.07;3.88;;;11.30;99.90;;;;;;5053095;28;20017;-75
2022/11/16 04:57:56;;;;;;;7.00;4.38;;;11.30;99.90;;;;;;5051538;28;20037;-75
2022/11/16 05:00:22;;;;;;;7.10;4.25;;;11.30;99.90;;;;;;5053533;28;20036;-75
2022/11/16 05:02:47;;;;;;;5.85;4.20;;;11.30;99.90;;;;;;5053322;28;20040;-75
2022/11/16 05:05:13;;;;;;;7.30;4.10;;;11.30;99.90;;;;;;5051327;28;20072;-75
2022/11/16 05:07:39;;;;;;;7.78;4.30;;;11.30;99.90;;;;;;5051929;28;20029;-75
2022/11/16 05:10:06;;;;;;;7.43;4.28;;;11.30;99.90;;;;;;5051908;28;20052;-75
2022/11/16 05:12:32;;;;;;;7.60;4.72;;;11.30;99.90;;;;;;5051396;28;20036;-74
2022/11/16 05:14:57;;;;;;;7.68;4.47;;;11.30;99.90;;;;;;5051993;28;20029;-75
2022/11/16 05:17:24;;;;;;;7.72;4.97;;;11.30;99.90;;;;;;5051281;28;20389;-74
2022/11/16 05:22:34;;;;;;;7.15;4.40;;;11.30;99.90;;;;;;5052643;28;20059;-75
2022/11/16 05:25:00;;;;;;;7.82;5.20;;;11.30;99.90;;;;;;5050564;28;20029;-75
2022/11/16 05:27:28;;;;;;;9.35;5.47;;;11.30;99.90;;;;;;5050933;28;20036;-74
2022/11/16 05:29:54;;;;;;;9.38;5.00;;;11.30;99.90;;;;;;5052516;28;20032;-75
2022/11/16 05:32:20;;;;;;;8.07;5.30;;;11.30;99.90;;;;;;5051271;28;20032;-75
2022/11/16 05:34:46;;;;;;;7.78;4.40;;;11.30;99.90;;;;;;5052754;28;20057;-74
2022/11/16 05:37:12;;;;;;;10.52;6.05;;;11.20;99.90;;;;;;5050496;28;20071;-75
2022/11/16 05:39:37;;;;;;;11.32;5.50;;;11.30;99.90;;;;;;5051198;28;20381;-75
2022/11/16 05:42:04;;;;;;;11.18;5.85;;;11.30;99.90;;;;;;5050469;28;20025;-75
2022/11/16 05:44:30;;;;;;;10.48;6.10;;;11.20;99.90;;;;;;5051374;28;20021;-75
2022/11/16 05:46:56;;;;;;;13.27;6.75;;;11.20;99.90;;;;;;5051114;28;20128;-76
2022/11/16 05:49:22;;;;;;;10.82;6.05;;;11.20;99.90;;;;;;5051162;28;20025;-74
2022/11/16 05:51:48;;;;;;;10.68;6.22;;;11.20;99.90;;;;;;5051410;28;20390;-75
2022/11/16 05:54:17;;;;;;;12.02;6.05;;;11.20;99.90;;;;;;5050660;28;20481;-74
2022/11/16 05:56:43;;;;;;;10.15;6.40;;;11.20;99.90;;;;;;5051320;28;20043;-75
2022/11/16 05:59:12;;;;;;;10.18;6.68;;;11.10;99.90;;;;;;5050551;28;20044;-75
2022/11/16 06:01:37;;;;;;;11.20;6.38;;;11.20;99.90;;;;;;5052129;28;20466;-74
2022/11/16 06:04:03;;;;;;;11.68;6.05;;;11.20;99.90;;;;;;5050265;28;20025;-75
2022/11/16 06:06:29;;;;;;;11.88;6.63;;;11.20;99.90;;;;;;5051626;28;20030;-75
2022/11/16 06:08:54;;;;;;;13.50;6.25;;;11.20;99.90;;;;;;5056232;28;20035;-76
2022/11/16 06:11:20;;;;;;;10.18;6.15;;;11.20;99.90;;;;;;5055902;28;20127;-75
2022/11/16 06:13:46;;;;;;;11.77;6.53;;;11.20;99.90;;;;;;5055023;28;20055;-75
2022/11/16 06:16:12;;;;;;;13.57;6.50;;;11.10;99.90;;;;;;5054185;28;20029;-75
2022/11/16 06:18:39;;;;;;;10.48;6.60;;;11.10;99.90;;;;;;5056003;28;20040;-75
2022/11/16 06:21:05;;;;;;;13.65;6.47;;;11.10;99.90;;;;;;5054167;28;20029;-75
2022/11/16 06:23:31;;;;;;;11.65;6.55;;;11.10;99.90;;;;;;5054523;28;20117;-74
2022/11/16 06:25:57;;;;;;;12.43;6.20;;;11.10;99.90;;;;;;5054244;28;20464;-78
2022/11/16 06:28:23;;;;;;;13.02;6.07;;;11.10;99.90;;;;;;5054159;28;20029;-74
2022/11/16 06:30:49;;;;;;;10.82;6.55;;;11.10;99.90;;;;;;5054401;28;20425;-75
2022/11/16 06:33:15;;;;;;;14.80;6.43;;;11.10;99.90;;;;;;5054126;28;20071;-75
2022/11/16 06:35:41;;;;;;;13.30;6.50;;;11.10;99.90;;;;;;5055865;28;20021;-74
2022/11/16 06:38:07;;;;;;;11.20;5.90;;;11.10;99.90;;;;;;5055354;28;20394;-75
2022/11/16 06:40:33;;;;;;;12.30;6.65;;;11.10;99.90;;;;;;5056095;28;20483;-75
2022/11/16 06:42:59;;;;;;;13.05;6.75;;;11.10;99.90;;;;;;5054341;28;20017;-75
2022/11/16 06:45:25;;;;;;;9.95;6.35;;;11.00;99.90;;;;;;5055295;28;20109;-75
2022/11/16 06:47:51;;;;;;;12.02;6.20;;;11.00;99.90;;;;;;5054469;28;20033;-75
2022/11/16 06:50:18;;;;;;;11.60;4.95;;;11.00;99.90;;;;;;5053937;28;20382;-75
2022/11/16 06:52:48;;;;;;;12.10;5.78;;;11.00;99.90;;;;;;5054306;28;20032;-74
2022/11/16 06:55:15;;;;;;;8.25;5.60;;;11.00;99.90;;;;;;5053698;28;20035;-75
2022/11/16 06:57:40;;;;;;;10.48;5.70;;;11.00;99.90;;;;;;5054169;28;20386;-75
2022/11/16 07:00:09;;;;;;;9.30;5.45;;;11.00;99.90;;;;;;5053259;28;20482;-75
2022/11/16 07:02:39;;;;;;;8.63;5.30;;;11.00;99.90;;;;;;5053592;28;20115;-74
2022/11/16 07:05:05;;;;;;;9.85;5.45;;;11.00;99.90;;;;;;5054563;28;20040;-74
2022/11/16 07:07:31;;;;;;;9.77;5.15;;;11.00;99.90;;;;;;5055411;28;20080;-74
2022/11/16 07:09:57;;;;;;;11.38;6.38;;;11.00;99.90;;;;;;5053803;28;20502;-74
2022/11/16 07:12:23;;;;;;;10.43;5.53;;;11.00;99.90;;;;;;5055044;28;20060;-74
2022/11/16 07:14:48;;;;;;;11.35;5.10;;;11.00;99.90;;;;;;5055212;28;20104;-74
2022/11/16 07:17:14;;;;;;;10.27;5.22;;;11.00;99.90;;;;;;5053502;28;20035;-74
2022/11/16 07:19:39;;;;;;;11.38;5.47;;;11.10;99.90;;;;;;5052442;28;20120;-74
2022/11/16 07:22:05;;;;;;;10.52;5.35;;;11.10;99.90;;;;;;5052913;28;20029;-74
2022/11/16 07:24:31;;;;;;;9.88;4.95;;;11.10;99.90;;;;;;5054778;28;20017;-74
2022/11/16 07:26:57;;;;;;;8.25;4.65;;;11.20;99.90;;;;;;5054599;28;20033;-74
2022/11/16 07:29:23;;;;;;;7.60;4.60;;;11.20;99.90;;;;;;5054234;28;20901;-74
2022/11/16 07:31:48;;;;;;;10.38;4.97;;;11.20;99.90;;;;;;5053580;28;20139;-74
2022/11/16 07:34:14;;;;;;;9.00;3.80;;;11.20;99.90;;;;;;5053128;28;20083;-74
2022/11/16 07:36:40;;;;;;;7.10;3.67;;;11.20;99.90;;;;;;5054772;28;20037;-74
2022/11/16 07:39:08;;;;;;;6.82;3.50;;;11.30;99.90;;;;;;5052998;28;20115;-74
2022/11/16 07:41:34;;;;;;;8.43;3.13;;;11.30;99.90;;;;;;5053151;28;20078;-74
2022/11/16 07:44:00;;;;;;;6.40;3.47;;;11.30;99.90;;;;;;5053404;28;20025;-74
2022/11/16 07:46:25;;;;;;;4.82;3.03;;;11.40;99.90;;;;;;5052968;28;20032;-74
2022/11/16 07:48:51;;;;;;;5.80;3.40;;;11.40;99.90;;;;;;5054831;28;20458;-74
2022/11/16 07:51:18;;;;;;;5.10;2.75;;;11.40;99.90;;;;;;5052830;28;20033;-74
2022/11/16 07:53:44;;;;;;;4.68;2.80;;;11.40;99.90;;;;;;5053157;28;20029;-74
2022/11/16 07:56:10;;;;;;;5.43;2.80;;;11.40;99.90;;;;;;5053619;28;20470;-74
2022/11/16 07:58:37;;;;;;;3.63;2.63;;;11.40;99.90;;;;;;5054134;28;20493;-74
2022/11/16 08:01:06;;;;;;;3.97;2.70;;;11.40;99.90;;;;;;5052750;28;20037;-78
2022/11/16 08:03:33;;;;;;;4.57;2.50;;;11.50;99.90;;;;;;5052734;28;20029;-75
2022/11/16 08:06:01;;;;;;;4.63;2.50;;;11.40;99.90;;;;;;5054453;28;20028;-75
2022/11/16 08:08:27;;;;;;;3.70;2.67;;;11.50;99.90;;;;;;5053719;28;20086;-75
2022/11/16 08:11:08;;;;;;;5.00;2.70;;;11.50;99.90;;;;;;5052589;28;20091;-75
2022/11/16 08:13:37;;;;;;;6.55;2.25;;;11.50;99.90;;;;;;5053169;28;20031;-76
2022/11/16 08:16:09;;;;;;;5.20;2.30;;;11.50;99.90;;;;;;5052617;28;20037;-77
2022/11/16 08:18:35;;;;;;;4.20;1.95;;;11.50;99.90;;;;;;5052921;28;20052;-75
2022/11/16 08:21:03;;;;;;;3.95;2.15;;;11.50;99.90;;;;;;5052484;28;20025;-75
2022/11/16 08:23:29;;;;;;;2.90;2.03;;;11.60;99.90;;;;;;5052062;28;20078;-76
2022/11/16 08:26:02;;;;;;;5.95;2.75;;;11.50;99.90;;;;;;5053320;28;20471;-75
2022/11/16 08:28:29;;;;;;;4.40;1.70;;;11.60;99.90;;;;;;5052159;28;20374;-76
2022/11/16 08:30:56;;;;;;;4.38;2.10;;;11.60;99.90;;;;;;5053234;28;20025;-74
2022/11/16 08:33:23;;;;;;;6.30;2.58;;;11.70;99.90;;;;;;5052657;28;20511;-75
2022/11/16 08:35:49;;;;;;;6.57;2.40;;;11.70;99.90;;;;;;5053412;28;20028;-75
2022/11/16 08:38:14;;;;;;;5.32;2.00;;;11.80;99.90;;;;;;5051875;28;20047;-76
2022/11/16 08:40:40;;;;;;;4.18;2.13;;;11.80;99.90;;;;;;5051067;28;20371;-74
2022/11/16 08:43:06;;;;;;;3.42;2.03;;;11.90;99.90;;;;;;5052772;28;20068;-77
2022/11/16 08:45:32;;;;;;;5.03;1.90;;;11.90;99.90;;;;;;5052543;28;20040;-75
2022/11/16 08:47:58;;;;;;;5.20;2.17;;;11.90;99.90;;;;;;5052971;28;20036;-75
2022/11/16 08:50:25;;;;;;;3.60;2.00;;;12.00;99.90;;;;;;5050993;28;20508;-74
2022/11/16 08:52:50;;;;;;;6.72;2.42;;;12.00;99.90;;;;;;5053272;28;20086;-75
2022/11/16 08:55:17;;;;;;;4.45;1.95;;;12.00;99.90;;;;;;5051524;28;20028;-75
2022/11/16 08:57:43;;;;;;;4.05;1.90;;;12.00;99.90;;;;;;5052912;28;20029;-74
2022/11/16 09:00:10;;;;;;;4.10;1.67;;;12.10;99.90;;;;;;5051486;28;20359;-76
2022/11/16 09:02:36;;;;;;;3.28;1.60;;;12.10;99.90;;;;;;5052311;28;20037;-76
2022/11/16 09:05:02;;;;;;;3.38;1.33;;;12.10;99.90;;;;;;5051754;28;20048;-75
2022/11/16 09:07:27;;;;;;;3.83;1.40;;;12.10;99.90;;;;;;5051113;28;20029;-75
2022/11/16 09:09:53;;;;;;;4.95;2.05;;;12.10;99.90;;;;;;5052238;28;20440;-75
2022/11/16 09:12:18;;;;;;;4.63;1.45;;;12.20;99.90;;;;;;5050764;28;20488;-76
2022/11/16 09:14:44;;;;;;;2.20;1.23;;;12.20;99.90;;;;;;5051306;28;20029;-75
2022/11/16 09:17:10;;;;;;;3.45;1.40;;;12.20;99.90;;;;;;5051182;28;20166;-76
2022/11/16 09:19:35;;;;;;;3.00;1.30;;;12.30;99.90;;;;;;5051407;28;20467;-75
2022/11/16 09:22:01;;;;;;;4.63;1.48;;;12.30;99.90;;;;;;5052708;28;20064;-75
2022/11/16 09:24:26;;;;;;;3.85;1.50;;;12.30;99.90;;;;;;5052281;28;20017;-75
2022/11/16 09:26:54;;;;;;;2.92;1.75;;;12.30;99.90;;;;;;5052847;28;20025;-75
2022/11/16 09:29:19;;;;;;;5.40;1.63;;;12.40;99.90;;;;;;5050512;28;20022;-74
2022/11/16 09:31:45;;;;;;;2.83;1.17;;;12.40;99.90;;;;;;5050059;28;20116;-75
2022/11/16 09:34:10;;;;;;;5.80;1.10;;;12.40;99.90;;;;;;5050807;28;20024;-76
2022/11/16 09:36:36;;;;;;;2.05;1.20;;;12.40;99.90;;;;;;5053168;28;20492;-75
2022/11/16 09:39:02;;;;;;;4.43;1.25;;;12.50;99.90;;;;;;5065867;28;20029;-77
2022/11/16 09:41:46;;;;;;;2.45;1.20;;;12.50;99.90;;;;;;5067946;28;20035;-77
2022/11/16 09:44:41;;;;;;;3.13;1.20;;;12.50;99.90;;;;;;5050775;28;20025;-76
2022/11/16 09:47:20;;;;;;;4.20;1.08;;;12.50;99.90;;;;;;5047562;28;20039;-79
2022/11/16 09:49:53;;;;;;;2.78;1.30;;;12.40;99.90;;;;;;5071010;28;20394;-75
2022/11/16 09:52:42;;;;;;;3.83;1.30;;;12.40;99.90;;;;;;5065706;28;20032;-77
2022/11/16 09:55:25;;;;;;;4.05;1.23;;;12.50;99.90;;;;;;5043188;28;20021;-77
2022/11/16 09:57:55;;;;;;;2.88;1.38;;;12.50;99.90;;;;;;5053621;28;20044;-75
2022/11/16 10:00:22;;;;;;;3.03;1.13;;;12.50;99.90;;;;;;5053777;28;20033;-77
2022/11/16 10:03:17;;;;;;;7.85;1.52;;;12.60;99.90;;;;;;5052098;28;20052;-74
2022/11/16 10:06:02;;;;;;;1.85;0.90;;;12.60;99.90;;;;;;5047267;28;20044;-75
2022/11/16 10:08:45;;;;;;;1.25;0.75;;;12.50;99.90;;;;;;5056717;28;20024;-75
2022/11/16 10:11:34;;;;;;;2.58;1.10;;;12.50;99.90;;;;;;5057024;28;20490;-77
2022/11/16 10:14:12;;;;;;;4.78;0.80;;;12.50;99.90;;;;;;5040123;28;20027;-74
2022/11/16 10:16:53;;;;;;;1.20;0.70;;;12.50;99.90;;;;;;5061398;28;20040;-75
2022/11/16 10:19:27;;;;;;;3.63;1.00;;;12.60;99.90;;;;;;5050450;28;20124;-75
2022/11/16 10:22:09;;;;;;;4.50;0.90;;;12.50;99.90;;;;;;5051777;28;20094;-75
2022/11/16 10:24:52;;;;;;;10.00;5.80;;;12.50;99.90;;;;;;5050634;28;20021;-75
2022/11/16 10:27:29;;;;;;;5.78;1.52;;;12.50;99.90;;;;;;5062754;28;20556;-76
2022/11/16 10:30:07;;;;;;;6.15;0.70;;;12.50;99.90;;;;;;5069724;28;20032;-78
2022/11/16 10:32:44;;;;;;;2.35;0.93;;;12.50;99.90;;;;;;5059843;28;20028;-76
2022/11/16 10:35:09;;;;;;;4.38;1.00;;;12.50;99.90;;;;;;5071518;28;20028;-78
2022/11/16 10:37:44;;;;;;;1.75;0.75;;;12.50;99.90;;;;;;5064287;28;20462;-76
2022/11/16 10:40:36;;;;;;;4.10;0.65;;;12.50;99.90;;;;;;5048236;28;20057;-76
2022/11/16 10:43:16;;;;;;;5.20;0.70;;;12.50;99.90;;;;;;5063958;28;20124;-76
2022/11/16 10:45:45;;;;;;;3.58;0.52;;;12.40;99.90;;;;;;5056790;28;20140;-76
2022/11/16 10:48:30;;;;;;;1.20;0.73;;;12.40;99.90;;;;;;5057413;28;20017;-76
2022/11/16 10:50:56;;;;;;;3.00;0.50;;;12.50;99.90;;;;;;5069411;28;20452;-76
2022/11/16 10:53:32;;;;;;;3.60;1.00;;;12.50;99.90;;;;;;5070879;28;20026;-74
2022/11/16 10:56:20;;;;;;;4.80;0.70;;;12.40;99.90;;;;;;5037428;28;20020;-76
2022/11/16 10:58:55;;;;;;;1.00;0.40;;;12.50;99.90;;;;;;5056820;28;20040;-75
2022/11/16 11:01:42;;;;;;;4.93;1.00;;;12.50;99.90;;;;;;5055990;28;20032;-76
2022/11/16 11:04:15;;;;;;;2.65;0.80;;;12.60;99.90;;;;;;5067469;28;20437;-77
2022/11/16 11:06:42;;;;;;;0.88;0.45;;;12.80;99.90;;;;;;5052849;28;20120;-77
2022/11/16 11:09:32;;;;;;;2.08;0.47;;;12.90;99.90;;;;;;5054860;28;20056;-75
2022/11/16 11:15:00;;;;;;;2.70;0.50;;;13.10;99.90;;;;;;5050732;28;20051;-77
2022/11/16 11:17:27;;;;;;;2.92;0.63;;;13.10;99.90;;;;;;5068085;28;20515;-75
2022/11/16 11:20:03;;;;;;;3.40;0.70;;;13.10;99.90;;;;;;5053866;28;20037;-75
2022/11/16 11:22:30;;;;;;;4.32;0.55;;;13.00;99.90;;;;;;5059668;28;20428;-75
2022/11/16 11:24:56;;;;;;;3.03;0.70;;;13.00;99.90;;;;;;5062227;28;20085;-75
2022/11/16 11:27:31;;;;;;;1.80;0.40;;;13.00;99.90;;;;;;5053774;28;20033;-76
2022/11/16 11:29:57;;;;;;;3.03;0.60;;;13.10;99.90;;;;;;5052825;28;20040;-76
2022/11/16 11:32:30;;;;;;;3.13;0.40;;;13.20;99.90;;;;;;5052409;28;20044;-76
2022/11/16 11:34:58;;;;;;;2.78;0.60;;;13.30;99.90;;;;;;5065257;28;20600;-75
2022/11/16 11:37:34;;;;;;;2.05;0.38;;;13.30;99.90;;;;;;5074097;28;20064;-75
2022/11/16 11:40:24;;;;;;;3.30;0.90;;;13.40;99.90;;;;;;5070711;28;20177;-75
2022/11/16 11:42:54;;;;;;;1.20;0.55;;;13.40;99.90;;;;;;5065073;28;20074;-74
2022/11/16 11:45:23;;;;;;;2.80;0.55;;;13.50;99.90;;;;;;5058067;28;20025;-76
2022/11/16 11:48:06;;;;;;;1.80;0.40;;;13.80;99.90;;;;;;5070559;28;20551;-75
2022/11/16 11:50:37;;;;;;;0.82;0.35;;;13.90;99.90;;;;;;5055593;28;20033;-74
2022/11/16 11:53:29;;;;;;;4.32;0.38;;;14.00;99.90;;;;;;5054677;28;20040;-74
2022/11/16 11:55:57;;;;;;;2.47;0.30;;;14.10;99.90;;;;;;5059590;28;20029;-75
2022/11/16 11:58:30;;;;;;;2.30;0.50;;;14.10;99.90;;;;;;5039979;28;20029;-74
2022/11/16 12:01:19;;;;;;;1.80;0.35;;;14.20;99.90;;;;;;5054335;28;20538;-75
2022/11/16 12:04:22;;;;;;;2.70;0.73;;;14.30;99.90;;;;;;5062241;28;20070;-75
2022/11/16 12:07:00;;;;;;;3.45;0.47;;;14.60;99.90;;;;;;5054820;28;20358;-76
2022/11/16 12:10:07;;;;;;;2.88;0.55;;;14.40;99.90;;;;;;5057244;28;20115;-76
2022/11/16 12:12:55;;;;;;;3.72;0.50;;;14.30;99.90;;;;;;5049384;28;20057;-76
2022/11/16 12:15:36;;;;;;;2.30;0.50;;;14.20;99.90;;;;;;5055918;28;20033;-77
2022/11/16 12:18:11;;;;;;;3.03;0.50;;;14.30;99.90;;;;;;5042125;28;20470;-76
2022/11/16 12:20:47;;;;;;;3.42;0.40;;;14.20;99.90;;;;;;5072824;28;20469;-76
2022/11/16 12:23:31;;;;;;;1.55;0.40;;;14.80;99.90;;;;;;5058341;28;20107;-75
2022/11/16 12:26:14;;;;;;;2.88;0.47;;;14.80;99.90;;;;;;5040824;28;20024;-75
2022/11/16 12:28:57;;;;;;;3.45;0.57;;;14.80;99.90;;;;;;5062703;28;20040;-76
2022/11/16 12:31:52;;;;;;;4.40;0.50;;;14.90;99.90;;;;;;5055502;28;20029;-76
2022/11/16 12:34:35;;;;;;;1.63;0.40;;;15.50;99.90;;;;;;5045151;28;20059;-77
2022/11/16 12:37:50;;;;;;;3.05;0.50;;;15.90;99.90;;;;;;5059798;28;20053;-77
2022/11/16 12:40:43;;;;;;;2.75;0.45;;;16.30;99.90;;;;;;5017306;28;20068;-77
2022/11/16 12:43:20;;;;;;;2.90;0.50;;;16.50;99.90;;;;;;5058779;28;20117;-75
2022/11/16 12:46:09;;;;;;;2.28;0.47;;;16.00;99.90;;;;;;5049757;28;20028;-77
2022/11/16 12:48:43;;;;;;;1.98;0.50;;;15.80;99.90;;;;;;5061398;28;20029;-77
2022/11/16 12:51:38;;;;;;;3.40;0.35;;;15.80;99.90;;;;;;5060487;28;20032;-76
2022/11/16 12:54:04;;;;;;;2.80;0.45;;;15.50;99.90;;;;;;5042644;28;20095;-75
2022/11/16 12:56:50;;;;;;;2.50;0.40;;;15.30;99.90;;;;;;5064032;28;20123;-75
2022/11/16 12:59:29;;;;;;;5.55;0.63;;;15.40;99.90;;;;;;5065723;28;20040;-76
2022/11/16 13:02:01;;;;;;;2.88;0.40;;;15.50;99.90;;;;;;5056236;28;20035;-76
2022/11/16 13:04:32;;;;;;;;;;;15.60;99.90;;;;;;5063672;28;20025;-76
2022/11/16 13:07:07;;;;;;;1.40;0.38;;;16.00;99.90;;;;;;5063553;28;19954;-75
2022/11/16 13:09:37;;;;;;;2.47;0.65;;;16.20;99.90;;;;;;5054246;28;20512;-75
2022/11/16 13:12:12;;;;;;;5.32;0.40;;;16.10;99.90;;;;;;5068371;28;20029;-75
2022/11/16 13:14:41;;;;;;;4.65;0.40;;;16.10;99.90;;;;;;5060660;28;20029;-78
2022/11/16 13:17:09;;;;;;;2.35;0.25;;;16.20;99.90;;;;;;5056386;28;20493;-79
2022/11/16 13:19:40;;;;;;;0.90;0.40;;;16.50;99.90;;;;;;5069045;28;20028;-78
2022/11/16 13:22:21;;;;;;;2.00;0.30;;;16.70;99.90;;;;;;5057156;28;20107;-79
2022/11/16 13:24:53;;;;;;;3.00;0.40;;;16.90;99.90;;;;;;5063293;28;20474;-76
2022/11/16 13:27:36;;;;;;;3.20;0.65;;;17.10;99.90;;;;;;5067160;28;20032;-78
2022/11/16 13:30:21;;;;;;;3.65;0.50;;;17.00;99.90;;;;;;5050525;28;20025;-77
2022/11/16 13:33:26;;;;;;;1.98;0.60;;;16.80;99.90;;;;;;5051564;28;20044;-75
2022/11/16 13:35:52;;;;;;;6.28;0.60;;;16.40;99.90;;;;;;5055237;28;20504;-75
2022/11/16 13:38:51;;;;;;;4.18;0.63;;;16.30;99.90;;;;;;5067467;28;20029;-77
2022/11/16 13:41:37;;;;;;;3.63;0.52;;;16.20;99.90;;;;;;5070671;28;20063;-77
2022/11/16 13:44:10;;;;;;;3.63;0.60;;;16.20;99.90;;;;;;5050137;28;20070;-77
2022/11/16 13:47:02;;;;;;;3.35;0.50;;;16.00;99.90;;;;;;5072138;28;20517;-77
2022/11/16 13:49:33;;;;;;;3.30;0.85;;;15.80;99.90;;;;;;5054523;28;20021;-76